Time;durP1;ratioP1;P1;durP2;ratioP2;P2;SDS_P1;SDS_P2;PMS_P1;PMS_P2;Temp;Humidity;BMP_temperature;BMP_pressure;BME280_temperature;BME280_humidity;BME280_pressure;Samples;Min_cycle;Max_cycle;Signal;HPM_P1;HPM_P2
2023/02/15 00:01:33;;;;;;;;;;;;;;;;;;2205065;67;1283;-64
2023/02/15 00:04:03;;;;;;;;;;;;;;;;;;2205301;67;1148;-64
2023/02/15 00:06:34;;;;;;;;;;;;;;;;;;2204776;67;1234;-64
2023/02/15 00:09:04;;;;;;;;;;;;;;;;;;2205746;59;1228;-64
2023/02/15 00:11:40;;;;;;;;;;;;;;;;;;2204987;59;1290;-64
2023/02/15 00:14:14;;;;;;;;;;;;;;;;;;2205737;67;1933;-64
2023/02/15 00:16:45;;;;;;;;;;;;;;;;;;2205297;59;1281;-63
2023/02/15 00:19:16;;;;;;;;;;;;;;;;;;2205427;59;1128;-63
2023/02/15 00:21:46;;;;;;;;;;;;;;;;;;2205210;67;1176;-64
2023/02/15 00:24:16;;;;;;;;;;;;;;;;;;2205688;59;2563;-63
2023/02/15 00:26:47;;;;;;;;;;;;;;;;;;2204459;67;1222;-64
2023/02/15 00:29:18;;;;;;;;;;;;;;;;;;2205754;67;1183;-63
2023/02/15 00:31:48;;;;;;;;;;;;;;;;;;2205754;67;1042;-64
2023/02/15 00:34:22;;;;;;;;;;;;;;;;;;2205132;67;2014;-64
2023/02/15 00:36:52;;;;;;;;;;;;;;;;;;2205203;67;1220;-63
2023/02/15 00:39:23;;;;;;;;;;;;;;;;;;2204040;67;990;-64
2023/02/15 00:41:53;;;;;;;;;;;;;;;;;;2204307;59;1886;-63
2023/02/15 00:44:24;;;;;;;;;;;;;;;;;;2204905;67;974;-63
2023/02/15 00:46:54;;;;;;;;;;;;;;;;;;2204151;67;1225;-63
2023/02/15 00:49:24;;;;;;;;;;;;;;;;;;2204154;67;2340;-63
2023/02/15 00:51:54;;;;;;;;;;;;;;;;;;2205935;59;1941;-63
2023/02/15 00:54:24;;;;;;;;;;;;;;;;;;2205800;67;1237;-63
2023/02/15 00:56:54;;;;;;;;;;;;;;;;;;2205721;67;1230;-63
2023/02/15 00:59:25;;;;;;;;;;;;;;;;;;2205110;67;1125;-64
2023/02/15 01:01:55;;;;;;;;;;;;;;;;;;2205593;67;1145;-63
2023/02/15 01:04:25;;;;;;;;;;;;;;;;;;2204762;59;1069;-63
2023/02/15 01:06:55;;;;;;;;;;;;;;;;;;2205344;67;1244;-63
2023/02/15 01:09:25;;;;;;;;;;;;;;;;;;2205212;67;1012;-63
2023/02/15 01:11:56;;;;;;;;;;;;;;;;;;2205301;59;1924;-63
2023/02/15 01:14:26;;;;;;;;;;;;;;;;;;2205254;67;1085;-64
2023/02/15 01:16:56;;;;;;;;;;;;;;;;;;2205154;59;1249;-64
2023/02/15 01:19:26;;;;;;;;;;;;;;;;;;2204933;67;1128;-64
2023/02/15 01:21:56;;;;;;;;;;;;;;;;;;2205351;59;2266;-63
2023/02/15 01:24:27;;;;;;;;;;;;;;;;;;2205212;59;1328;-63
2023/02/15 01:26:57;;;;;;;;;;;;;;;;;;2205586;67;1352;-63
2023/02/15 01:29:27;;;;;;;;;;;;;;;;;;2204781;67;1173;-63
2023/02/15 01:31:57;;;;;;;;;;;;;;;;;;2205304;59;1926;-63
2023/02/15 01:34:28;;;;;;;;;;;;;;;;;;2205281;67;1009;-63
2023/02/15 01:36:58;;;;;;;;;;;;;;;;;;2205315;67;1248;-64
2023/02/15 01:39:28;;;;;;;;;;;;;;;;;;2205234;67;1162;-63
2023/02/15 01:41:59;;;;;;;;;;;;;;;;;;2205459;59;2026;-64
2023/02/15 01:44:48;;;;;;;;;;;;;;;;;;2204587;67;1082;-64
2023/02/15 01:47:21;;;;;;;;;;;;;;;;;;2205264;67;1213;-64
2023/02/15 01:49:52;;;;;;;;;;;;;;;;;;2204136;59;2209;-64
2023/02/15 01:52:23;;;;;;;;;;;;;;;;;;2201416;59;2121;-64
2023/02/15 01:54:53;;;;;;;;;;;;;;;;;;2205695;67;1224;-64
2023/02/15 01:57:23;;;;;;;;;;;;;;;;;;2205397;59;1983;-64
2023/02/15 01:59:55;;;;;;;;;;;;;;;;;;2205084;59;2018;-64
2023/02/15 02:02:25;;;;;;;;;;;;;;;;;;2199162;59;2188;-64
2023/02/15 02:04:59;;;;;;;;;;;;;;;;;;2206458;67;1185;-63
2023/02/15 02:07:29;;;;;;;;;;;;;;;;;;2201093;59;2378;-63
2023/02/15 02:09:59;;;;;;;;;;;;;;;;;;2202090;59;2017;-63
2023/02/15 02:12:29;;;;;;;;;;;;;;;;;;2204727;59;1953;-64
2023/02/15 02:15:00;;;;;;;;;;;;;;;;;;2204705;59;1920;-65
2023/02/15 02:17:37;;;;;;;;;;;;;;;;;;2201438;59;1962;-64
2023/02/15 02:20:07;;;;;;;;;;;;;;;;;;2202233;59;2115;-64
2023/02/15 02:22:40;;;;;;;;;;;;;;;;;;2204808;59;2345;-63
2023/02/15 02:25:16;;;;;;;;;;;;;;;;;;2205797;59;1274;-63
2023/02/15 02:28:05;;;;;;;;;;;;;;;;;;2205096;59;1965;-64
2023/02/15 02:30:38;;;;;;;;;;;;;;;;;;2204703;67;1069;-64
2023/02/15 02:33:13;;;;;;;;;;;;;;;;;;2205526;59;2153;-64
2023/02/15 02:36:02;;;;;;;;;;;;;;;;;;2201495;67;1283;-63
2023/02/15 02:38:35;;;;;;;;;;;;;;;;;;2205353;59;1964;-63
2023/02/15 02:41:22;;;;;;;;;;;;;;;;;;2205253;59;1971;-63
2023/02/15 02:43:56;;;;;;;;;;;;;;;;;;2202441;59;1970;-63
2023/02/15 02:46:27;;;;;;;;;;;;;;;;;;2205068;67;1277;-63
2023/02/15 02:48:58;;;;;;;;;;;;;;;;;;2205476;59;2146;-63
2023/02/15 02:51:28;;;;;;;;;;;;;;;;;;2204757;59;1916;-64
2023/02/15 02:53:59;;;;;;;;;;;;;;;;;;2204066;59;2038;-63
2023/02/15 02:56:31;;;;;;;;;;;;;;;;;;2201269;59;2116;-63
2023/02/15 02:59:01;;;;;;;;;;;;;;;;;;2202216;59;1957;-63
2023/02/15 03:01:46;;;;;;;;;;;;;;;;;;2204571;59;2060;-63
2023/02/15 03:04:23;;;;;;;;;;;;;;;;;;2202589;59;2159;-64
2023/02/15 03:07:06;;;;;;;;;;;;;;;;;;2205087;59;2077;-63
2023/02/15 03:09:41;;;;;;;;;;;;;;;;;;2202408;59;1880;-63
2023/02/15 03:12:16;;;;;;;;;;;;;;;;;;2202156;59;2352;-63
2023/02/15 03:14:47;;;;;;;;;;;;;;;;;;2200940;67;1124;-63
2023/02/15 03:17:18;;;;;;;;;;;;;;;;;;2204575;59;2114;-64
2023/02/15 03:19:49;;;;;;;;;;;;;;;;;;2202367;67;1140;-64
2023/02/15 03:22:24;;;;;;;;;;;;;;;;;;2205229;59;2214;-64
2023/02/15 03:25:10;;;;;;;;;;;;;;;;;;2202048;59;2298;-64
2023/02/15 03:27:41;;;;;;;;;;;;;;;;;;2204634;59;2000;-63
2023/02/15 03:30:12;;;;;;;;;;;;;;;;;;2204396;59;2054;-63
2023/02/15 03:32:42;;;;;;;;;;;;;;;;;;2201086;59;2009;-64
2023/02/15 03:35:12;;;;;;;;;;;;;;;;;;2201637;59;2191;-64
2023/02/15 03:37:44;;;;;;;;;;;;;;;;;;2203969;59;1991;-64
2023/02/15 03:43:15;;;;;;;;;;;;;;;;;;2202130;59;2098;-64
2023/02/15 03:45:54;;;;;;;;;;;;;;;;;;2204299;59;2063;-64
2023/02/15 03:48:25;;;;;;;;;;;;;;;;;;2203690;59;2058;-64
2023/02/15 03:53:45;;;;;;;;;;;;;;;;;;2202128;59;1991;-64
2023/02/15 03:56:16;;;;;;;;;;;;;;;;;;2202080;59;2160;-64
2023/02/15 04:04:31;;;;;;;;;;;;;;;;;;2205274;59;2007;-64
2023/02/15 04:07:01;;;;;;;;;;;;;;;;;;2204845;67;1285;-64
2023/02/15 04:12:20;;;;;;;;;;;;;;;;;;2203053;59;1926;-63
2023/02/15 04:17:39;;;;;;;;;;;;;;;;;;2204205;59;1994;-63
2023/02/15 04:25:47;;;;;;;;;;;;;;;;;;2203956;59;1970;-63
2023/02/15 04:28:17;;;;;;;;;;;;;;;;;;2205646;59;1858;-64
2023/02/15 04:30:47;;;;;;;;;;;;;;;;;;2204483;67;1133;-63
2023/02/15 04:33:17;;;;;;;;;;;;;;;;;;2204829;59;1991;-63
2023/02/15 04:35:47;;;;;;;;;;;;;;;;;;2204796;67;1241;-64
2023/02/15 04:38:18;;;;;;;;;;;;;;;;;;2201355;59;2056;-64
2023/02/15 04:40:51;;;;;;;;;;;;;;;;;;2204058;59;2015;-63
2023/02/15 04:43:22;;;;;;;;;;;;;;;;;;2204794;59;2279;-63
2023/02/15 04:45:52;;;;;;;;;;;;;;;;;;2204646;67;1203;-64
2023/02/15 04:48:22;;;;;;;;;;;;;;;;;;2202631;59;2195;-64
2023/02/15 04:50:52;;;;;;;;;;;;;;;;;;2202179;67;1170;-64
2023/02/15 04:53:22;;;;;;;;;;;;;;;;;;2205101;59;1991;-63
2023/02/15 04:55:52;;;;;;;;;;;;;;;;;;2204518;67;1206;-63
2023/02/15 04:58:23;;;;;;;;;;;;;;;;;;2205328;67;1107;-63
2023/02/15 05:00:56;;;;;;;;;;;;;;;;;;2205439;67;1049;-64
2023/02/15 05:03:26;;;;;;;;;;;;;;;;;;2202199;67;1386;-64
2023/02/15 05:05:57;;;;;;;;;;;;;;;;;;2204812;67;1229;-64
2023/02/15 05:08:27;;;;;;;;;;;;;;;;;;2205204;67;1155;-64
2023/02/15 05:10:57;;;;;;;;;;;;;;;;;;2204828;59;1314;-64
2023/02/15 05:13:27;;;;;;;;;;;;;;;;;;2204562;67;1950;-64
2023/02/15 05:15:57;;;;;;;;;;;;;;;;;;2205317;59;1250;-64
2023/02/15 05:18:27;;;;;;;;;;;;;;;;;;2205279;67;1073;-64
2023/02/15 05:20:58;;;;;;;;;;;;;;;;;;2205002;67;1143;-63
2023/02/15 05:23:28;;;;;;;;;;;;;;;;;;2204521;59;2274;-63
2023/02/15 05:28:47;;;;;;;;;;;;;;;;;;2205227;67;1064;-64
2023/02/15 05:31:17;;;;;;;;;;;;;;;;;;2205756;67;1078;-64
2023/02/15 05:33:47;;;;;;;;;;;;;;;;;;2201850;67;1951;-64
2023/02/15 05:36:17;;;;;;;;;;;;;;;;;;2205619;67;1281;-64
2023/02/15 05:38:48;;;;;;;;;;;;;;;;;;2205641;67;1324;-64
2023/02/15 05:41:18;;;;;;;;;;;;;;;;;;2205324;59;1267;-64
2023/02/15 05:43:48;;;;;;;;;;;;;;;;;;2206216;67;1168;-64
2023/02/15 05:46:18;;;;;;;;;;;;;;;;;;2202132;67;1663;-63
2023/02/15 05:48:48;;;;;;;;;;;;;;;;;;2206134;59;2169;-63
2023/02/15 05:51:19;;;;;;;;;;;;;;;;;;2205746;59;1290;-64
2023/02/15 05:53:49;;;;;;;;;;;;;;;;;;2205559;67;1985;-64
2023/02/15 05:56:19;;;;;;;;;;;;;;;;;;2202038;67;1137;-64
2023/02/15 05:58:49;;;;;;;;;;;;;;;;;;2205801;67;1234;-63
2023/02/15 06:01:22;;;;;;;;;;;;;;;;;;2203230;67;1416;-64
2023/02/15 06:03:52;;;;;;;;;;;;;;;;;;2205857;67;1030;-64
2023/02/15 06:06:22;;;;;;;;;;;;;;;;;;2206034;67;1307;-63
2023/02/15 06:08:52;;;;;;;;;;;;;;;;;;2205647;67;1211;-63
2023/02/15 06:11:23;;;;;;;;;;;;;;;;;;2206215;59;1312;-63
2023/02/15 06:13:53;;;;;;;;;;;;;;;;;;2206271;67;1929;-63
2023/02/15 06:16:23;;;;;;;;;;;;;;;;;;2206046;59;1301;-63
2023/02/15 06:18:53;;;;;;;;;;;;;;;;;;2206055;67;1028;-63
2023/02/15 06:21:23;;;;;;;;;;;;;;;;;;2206044;67;1202;-64
2023/02/15 06:23:53;;;;;;;;;;;;;;;;;;2206547;59;2222;-64
2023/02/15 06:26:24;;;;;;;;;;;;;;;;;;2205682;67;2031;-63
2023/02/15 06:28:54;;;;;;;;;;;;;;;;;;2202923;67;982;-63
2023/02/15 06:31:24;;;;;;;;;;;;;;;;;;2205958;59;2063;-63
2023/02/15 06:34:00;;;;;;;;;;;;;;;;;;2205141;67;1957;-63
2023/02/15 06:36:31;;;;;;;;;;;;;;;;;;2205979;67;1229;-64
2023/02/15 06:39:02;;;;;;;;;;;;;;;;;;2205098;59;1160;-64
2023/02/15 06:41:33;;;;;;;;;;;;;;;;;;2205615;59;1409;-64
2023/02/15 06:44:03;;;;;;;;;;;;;;;;;;2206109;67;1140;-64
2023/02/15 06:46:33;;;;;;;;;;;;;;;;;;2202416;67;1336;-64
2023/02/15 06:49:03;;;;;;;;;;;;;;;;;;2205861;59;2234;-64
2023/02/15 06:51:34;;;;;;;;;;;;;;;;;;2205761;59;1399;-63
2023/02/15 06:54:04;;;;;;;;;;;;;;;;;;2202138;67;1983;-64
2023/02/15 06:56:34;;;;;;;;;;;;;;;;;;2205447;67;1230;-64
2023/02/15 06:59:04;;;;;;;;;;;;;;;;;;2205006;67;1128;-63
2023/02/15 07:01:36;;;;;;;;;;;;;;;;;;2205778;67;1174;-63
2023/02/15 07:04:07;;;;;;;;;;;;;;;;;;2203530;67;1287;-64
2023/02/15 07:06:37;;;;;;;;;;;;;;;;;;2205453;59;2067;-63
2023/02/15 07:09:07;;;;;;;;;;;;;;;;;;2206010;59;1373;-64
2023/02/15 07:14:26;;;;;;;;;;;;;;;;;;2205249;59;1940;-64
2023/02/15 07:16:56;;;;;;;;;;;;;;;;;;2205839;59;1270;-63
2023/02/15 07:19:26;;;;;;;;;;;;;;;;;;2201698;59;2012;-63
2023/02/15 07:21:56;;;;;;;;;;;;;;;;;;2204606;59;2093;-64
2023/02/15 07:24:27;;;;;;;;;;;;;;;;;;2205326;59;2025;-63
2023/02/15 07:26:57;;;;;;;;;;;;;;;;;;2204582;59;2000;-64
2023/02/15 07:29:27;;;;;;;;;;;;;;;;;;2205140;59;1980;-64
2023/02/15 07:31:57;;;;;;;;;;;;;;;;;;2205019;59;1969;-64
2023/02/15 07:34:28;;;;;;;;;;;;;;;;;;2205572;59;1918;-64
2023/02/15 07:36:58;;;;;;;;;;;;;;;;;;2204882;59;1972;-64
2023/02/15 07:39:28;;;;;;;;;;;;;;;;;;2204942;67;1110;-64
2023/02/15 07:41:59;;;;;;;;;;;;;;;;;;2200566;59;2316;-63
2023/02/15 07:44:29;;;;;;;;;;;;;;;;;;2204791;59;2273;-64
2023/02/15 07:46:59;;;;;;;;;;;;;;;;;;2204619;59;1960;-63
2023/02/15 07:49:30;;;;;;;;;;;;;;;;;;2203799;59;2245;-63
2023/02/15 07:52:00;;;;;;;;;;;;;;;;;;2204156;59;2027;-63
2023/02/15 07:54:30;;;;;;;;;;;;;;;;;;2204245;59;2316;-63
2023/02/15 07:57:01;;;;;;;;;;;;;;;;;;2204525;59;1970;-63
2023/02/15 07:59:31;;;;;;;;;;;;;;;;;;2204437;59;2101;-64
2023/02/15 08:02:01;;;;;;;;;;;;;;;;;;2204301;59;1971;-64
2023/02/15 08:04:31;;;;;;;;;;;;;;;;;;2201457;59;2056;-64
2023/02/15 08:07:01;;;;;;;;;;;;;;;;;;2205449;67;1280;-64
2023/02/15 08:09:32;;;;;;;;;;;;;;;;;;2204982;59;2047;-64
2023/02/15 08:12:02;;;;;;;;;;;;;;;;;;2204291;59;2028;-64
2023/02/15 08:14:32;;;;;;;;;;;;;;;;;;2204474;59;2090;-64
2023/02/15 08:17:04;;;;;;;;;;;;;;;;;;2204852;59;1266;-64
2023/02/15 08:19:35;;;;;;;;;;;;;;;;;;2201614;59;2045;-64
2023/02/15 08:22:06;;;;;;;;;;;;;;;;;;2205059;59;2250;-64
2023/02/15 08:24:39;;;;;;;;;;;;;;;;;;2205043;59;2001;-64
2023/02/15 08:27:10;;;;;;;;;;;;;;;;;;2202204;67;1316;-64
2023/02/15 08:29:41;;;;;;;;;;;;;;;;;;2200496;59;2119;-64
2023/02/15 08:32:12;;;;;;;;;;;;;;;;;;2205376;67;1040;-64
2023/02/15 08:34:42;;;;;;;;;;;;;;;;;;2204460;59;2090;-64
2023/02/15 08:37:12;;;;;;;;;;;;;;;;;;2205387;67;1248;-64
2023/02/15 08:39:43;;;;;;;;;;;;;;;;;;2204463;59;2082;-64
2023/02/15 08:42:13;;;;;;;;;;;;;;;;;;2205238;59;1452;-64
2023/02/15 08:44:44;;;;;;;;;;;;;;;;;;2204582;59;1983;-64
2023/02/15 08:47:14;;;;;;;;;;;;;;;;;;2204985;67;1602;-64
2023/02/15 08:49:44;;;;;;;;;;;;;;;;;;2204674;59;2284;-64
2023/02/15 08:52:14;;;;;;;;;;;;;;;;;;2204906;59;1955;-64
2023/02/15 08:54:44;;;;;;;;;;;;;;;;;;2205167;59;2213;-64
2023/02/15 08:57:15;;;;;;;;;;;;;;;;;;2202022;59;1975;-64
2023/02/15 08:59:45;;;;;;;;;;;;;;;;;;2201717;59;2247;-64
2023/02/15 09:02:15;;;;;;;;;;;;;;;;;;2199095;67;1322;-64
2023/02/15 09:04:45;;;;;;;;;;;;;;;;;;2198485;59;1986;-64
2023/02/15 09:07:18;;;;;;;;;;;;;;;;;;2204360;67;1295;-64
2023/02/15 09:09:48;;;;;;;;;;;;;;;;;;2202713;59;1976;-65
2023/02/15 09:12:18;;;;;;;;;;;;;;;;;;2202879;59;1932;-59
2023/02/15 09:14:49;;;;;;;;;;;;;;;;;;2202549;59;2038;-57
2023/02/15 09:17:19;;;;;;;;;;;;;;;;;;2203700;59;1169;-59
2023/02/15 09:19:49;;;;;;;;;;;;;;;;;;2202646;59;2604;-60
2023/02/15 09:22:19;;;;;;;;;;;;;;;;;;2202624;59;3025;-60
2023/02/15 09:24:49;;;;;;;;;;;;;;;;;;2203385;59;2025;-60
2023/02/15 09:27:19;;;;;;;;;;;;;;;;;;2203883;67;1329;-59
2023/02/15 09:29:49;;;;;;;;;;;;;;;;;;2203037;67;1196;-61
2023/02/15 09:32:20;;;;;;;;;;;;;;;;;;2203433;59;2136;-62
2023/02/15 09:34:50;;;;;;;;;;;;;;;;;;2203686;60;1211;-57
2023/02/15 09:37:20;;;;;;;;;;;;;;;;;;2200458;59;2081;-56
2023/02/15 09:39:50;;;;;;;;;;;;;;;;;;2202541;67;1018;-55
2023/02/15 09:42:21;;;;;;;;;;;;;;;;;;2203843;59;2206;-59
2023/02/15 09:45:06;;;;;;;;;;;;;;;;;;2203562;67;1216;-57
2023/02/15 09:47:36;;;;;;;;;;;;;;;;;;2202970;59;1959;-56
2023/02/15 09:50:26;;;;;;;;;;;;;;;;;;2203414;59;2294;-66
2023/02/15 09:53:14;;;;;;;;;;;;;;;;;;2203298;59;2241;-67
2023/02/15 09:55:57;;;;;;;;;;;;;;;;;;2204102;67;1344;-65
2023/02/15 09:58:53;;;;;;;;;;;;;;;;;;2202402;59;1741;-69
2023/02/15 10:01:29;;;;;;;;;;;;;;;;;;2203244;59;2106;-65
2023/02/15 10:04:18;;;;;;;;;;;;;;;;;;2203968;67;1074;-64
2023/02/15 10:07:06;;;;;;;;;;;;;;;;;;2204168;59;2034;-68
2023/02/15 10:09:55;;;;;;;;;;;;;;;;;;2203174;59;1732;-61
2023/02/15 10:12:25;;;;;;;;;;;;;;;;;;2201475;59;1985;-65
2023/02/15 10:15:14;;;;;;;;;;;;;;;;;;2201312;67;1639;-65
2023/02/15 10:17:50;;;;;;;;;;;;;;;;;;2204502;59;2182;-64
2023/02/15 10:20:23;;;;;;;;;;;;;;;;;;2204751;59;2806;-65
2023/02/15 10:23:09;;;;;;;;;;;;;;;;;;2200713;59;2333;-71
2023/02/15 10:25:39;;;;;;;;;;;;;;;;;;2200413;67;1168;-67
2023/02/15 10:28:17;;;;;;;;;;;;;;;;;;2204828;67;1077;-67
2023/02/15 10:30:51;;;;;;;;;;;;;;;;;;2202254;67;1187;-66
2023/02/15 10:33:25;;;;;;;;;;;;;;;;;;2201714;67;1928;-70
2023/02/15 10:36:18;;;;;;;;;;;;;;;;;;2201059;59;1763;-64
2023/02/15 10:39:02;;;;;;;;;;;;;;;;;;2203395;67;1343;-66
2023/02/15 10:41:47;;;;;;;;;;;;;;;;;;2202848;59;2044;-69
2023/02/15 10:44:26;;;;;;;;;;;;;;;;;;2205488;67;1195;-67
2023/02/15 10:47:02;;;;;;;;;;;;;;;;;;2204736;67;1234;-68
2023/02/15 10:49:42;;;;;;;;;;;;;;;;;;2205992;59;2170;-65
2023/02/15 10:52:30;;;;;;;;;;;;;;;;;;2205445;59;1955;-66
2023/02/15 10:55:19;;;;;;;;;;;;;;;;;;2198296;59;2061;-60
2023/02/15 10:58:10;;;;;;;;;;;;;;;;;;2197017;59;2200;-71
2023/02/15 11:00:41;;;;;;;;;;;;;;;;;;2196630;59;1827;-61
2023/02/15 11:03:30;;;;;;;;;;;;;;;;;;2201839;59;2068;-65
2023/02/15 11:06:03;;;;;;;;;;;;;;;;;;2201423;59;2111;-64
2023/02/15 11:08:37;;;;;;;;;;;;;;;;;;2205812;59;2063;-59
2023/02/15 11:11:08;;;;;;;;;;;;;;;;;;2202413;59;1370;-63
2023/02/15 11:13:39;;;;;;;;;;;;;;;;;;2200785;59;2059;-55
2023/02/15 11:16:10;;;;;;;;;;;;;;;;;;2199376;59;1277;-56
2023/02/15 11:18:42;;;;;;;;;;;;;;;;;;2204019;59;2062;-58
2023/02/15 11:21:32;;;;;;;;;;;;;;;;;;2202538;59;2438;-57
2023/02/15 11:24:07;;;;;;;;;;;;;;;;;;2200621;59;2325;-54
